Airfield :
LOGIN :

Register | Disclaimer

   EN    FR    IT 

 










Legend :    VFR   Marginal VFR   IFR   Intensive IFR   Very Intensive IFR
Visi :
Ceiling :
>= 8 km
>= 3000ft
5 to 8 km
1000 to 3000 ft
1500m to 5 km
500 to 1000 ft
800 to 1500m
200 to 500 ft
< 800m
< 200 ft
Symbols :   Thunderstorms  Fog  Heavy snow  Heavy precipitations  Wind > 20 kt
SIGMETs :     Misc.  Thunderstorms  Icing  Turbulence  Mountain Waves  Volcanic Ashes






- Airport Elevation : 433 ft


LFOC - Chateaudun

CURRENT METAR :
  • 120830Z AUTO VRB03KT CAVOK 28/17 Q1012 NOSIG

EXPIRED METARs :
  • 120800Z AUTO 10005KT 070V130 CAVOK 27/17 Q1013 NOSIG
  • 120730Z AUTO 07005KT 040V120 CAVOK 25/17 Q1013 NOSIG
  • 120700Z AUTO 07008KT CAVOK 24/17 Q1012 NOSIG
  • 120630Z AUTO 05003KT 020V080 CAVOK 22/18 Q1013 NOSIG
  • 120600Z AUTO VRB03KT CAVOK 20/17 Q1012

TAF TAF LFOC
Valid from the 12 at 09:00 until the 13 at 09:00 UTC


120800Z 1209/1309 08005KT CAVOK
TEMPO 1215/1218 19015G30KT 4900 SHRA BKN070CB
PROB40
TEMPO 1215/1217 19020G50KT TSRA BKN060CB
TEMPO 1303/1305 4900 -SHRA BKN050TCU
TEMPO 1308/1309 4900 SHRA BKN025CB



MET'MAP, your aeronautical weather chart ! - Copyright ORBIFLY December 2007 - Disclaimer

ORBIFLY MET'MAP TEAM :

Programming & Development : Alexandra Zaïnal
Concept & original design : Baudouin d'Aumeries
Assistance for programming : Marc-Olivier Méhu
Technical & hardware support : Manuel Goepfert

Contact : metmap@orbifly.com




SOURCES & CREDITS :

   NOAA